createdAt,value
2018-01-27T00:02:21.832Z,3.20
2018-01-27T00:04:48.071Z,3.30
2018-01-27T00:07:14.596Z,3.30
2018-01-27T00:09:41.211Z,3.20
2018-01-27T00:12:07.665Z,3.20
2018-01-27T00:14:35.247Z,3.20
2018-01-27T00:17:01.673Z,3.10
2018-01-27T00:19:27.938Z,3.20
2018-01-27T00:21:54.169Z,3.20
2018-01-27T00:24:20.568Z,3.20
2018-01-27T00:26:47.618Z,3.30
2018-01-27T00:29:14.805Z,3.30
2018-01-27T00:31:41.201Z,3.20
2018-01-27T00:34:08.162Z,3.30
2018-01-27T00:36:35.303Z,3.30
2018-01-27T00:39:02.317Z,3.30
2018-01-27T00:41:30.270Z,3.30
2018-01-27T00:43:56.548Z,3.30
2018-01-27T00:46:23.714Z,3.30
2018-01-27T00:48:50.125Z,3.30
2018-01-27T00:51:16.667Z,3.40
2018-01-27T00:53:44.109Z,3.40
2018-01-27T00:56:11.175Z,3.30
2018-01-27T00:58:37.414Z,3.30
2018-01-27T01:01:03.699Z,3.30
2018-01-27T01:03:30.132Z,3.30
2018-01-27T01:05:57.088Z,3.30
2018-01-27T01:08:24.229Z,3.30
2018-01-27T01:10:51.281Z,3.30
2018-01-27T01:13:18.213Z,3.20
2018-01-27T01:15:45.165Z,3.20
2018-01-27T01:18:12.275Z,3.20
2018-01-27T01:20:46.391Z,3.20
2018-01-27T01:23:12.818Z,3.20
2018-01-27T01:25:39.145Z,3.30
2018-01-27T01:28:05.514Z,3.30
2018-01-27T01:30:32.448Z,3.40
2018-01-27T01:32:58.730Z,3.30
2018-01-27T01:35:24.940Z,3.40
2018-01-27T01:37:51.163Z,3.40
2018-01-27T01:40:17.546Z,3.40
2018-01-27T01:42:50.217Z,3.40
2018-01-27T01:45:16.478Z,3.40
2018-01-27T01:47:43.526Z,3.40
2018-01-27T01:50:10.632Z,3.50
2018-01-27T01:52:36.976Z,3.40
2018-01-27T01:55:04.228Z,3.50
2018-01-27T01:57:31.284Z,3.50
2018-01-27T01:59:57.504Z,3.50
2018-01-27T02:02:24.600Z,3.50
2018-01-27T02:04:50.870Z,3.50
2018-01-27T02:07:17.953Z,3.60
2018-01-27T02:09:45.061Z,3.60
2018-01-27T02:12:11.341Z,3.60
2018-01-27T02:14:38.117Z,3.60
2018-01-27T02:17:04.382Z,3.60
2018-01-27T02:19:31.494Z,3.70
2018-01-27T02:21:57.860Z,3.60
2018-01-27T02:24:24.825Z,3.70
2018-01-27T02:26:51.004Z,3.60
2018-01-27T02:29:18.857Z,3.60
2018-01-27T02:31:45.096Z,3.60
2018-01-27T02:34:12.852Z,3.60
2018-01-27T02:36:39.077Z,3.60
2018-01-27T02:39:05.362Z,3.60
2018-01-27T02:41:31.870Z,3.70
2018-01-27T02:43:58.834Z,3.70
2018-01-27T02:46:25.331Z,3.60
2018-01-27T02:48:52.465Z,3.70
2018-01-27T02:51:18.670Z,3.60
2018-01-27T02:53:45.431Z,3.60
2018-01-27T02:56:11.716Z,3.60
2018-01-27T02:58:38.126Z,3.60
2018-01-27T03:01:05.081Z,3.70
2018-01-27T03:03:32.081Z,3.70
2018-01-27T03:05:58.382Z,3.70
2018-01-27T03:08:24.575Z,3.70
2018-01-27T03:10:51.583Z,3.80
2018-01-27T03:13:25.721Z,3.90
2018-01-27T03:15:53.240Z,3.90
2018-01-27T03:18:19.541Z,3.90
2018-01-27T03:20:45.754Z,3.90
2018-01-27T03:23:12.079Z,3.90
2018-01-27T03:25:38.471Z,3.90
2018-01-27T03:28:05.506Z,4.00
2018-01-27T03:30:31.765Z,4.00
2018-01-27T03:32:58.818Z,4.00
2018-01-27T03:35:25.991Z,4.10
2018-01-27T03:37:52.201Z,4.10
2018-01-27T03:40:19.300Z,4.10
2018-01-27T03:42:45.743Z,4.10
2018-01-27T03:45:12.912Z,4.20
2018-01-27T03:47:39.249Z,4.20
2018-01-27T03:50:06.226Z,4.10
2018-01-27T03:52:32.544Z,4.10
2018-01-27T03:54:58.865Z,4.10
2018-01-27T03:57:25.830Z,4.10
2018-01-27T03:59:52.114Z,4.10
2018-01-27T04:02:18.458Z,4.00
2018-01-27T04:04:44.798Z,4.00
2018-01-27T04:07:11.091Z,4.00
2018-01-27T04:09:37.445Z,4.00
2018-01-27T04:12:04.553Z,4.00
2018-01-27T04:14:30.835Z,4.00
2018-01-27T04:16:57.069Z,4.10
2018-01-27T04:19:23.406Z,4.00
2018-01-27T04:21:49.772Z,4.10
2018-01-27T04:24:15.981Z,4.10
2018-01-27T04:26:42.257Z,4.10
2018-01-27T04:29:09.235Z,4.00
2018-01-27T04:31:35.433Z,4.00
2018-01-27T04:34:02.576Z,3.90
2018-01-27T04:36:31.224Z,3.90
2018-01-27T04:38:57.665Z,3.90
2018-01-27T04:41:24.618Z,3.90
2018-01-27T04:43:50.906Z,3.90
2018-01-27T04:46:17.561Z,3.90
2018-01-27T04:48:44.032Z,3.90
2018-01-27T04:51:11.244Z,3.90
2018-01-27T04:53:37.790Z,3.80
2018-01-27T04:56:04.790Z,3.80
2018-01-27T04:58:31.100Z,3.80
2018-01-27T05:00:58.127Z,3.80
2018-01-27T05:03:24.482Z,3.80
2018-01-27T05:05:50.728Z,3.80
2018-01-27T05:08:16.908Z,3.80
2018-01-27T05:10:43.347Z,3.80
2018-01-27T05:13:10.294Z,3.80
2018-01-27T05:15:37.232Z,3.80
2018-01-27T05:18:04.348Z,3.80
2018-01-27T05:20:30.634Z,3.80
2018-01-27T05:22:57.008Z,3.80
2018-01-27T05:25:23.277Z,3.80
2018-01-27T05:27:50.330Z,3.80
2018-01-27T05:30:17.243Z,3.80
2018-01-27T05:32:44.298Z,3.80
2018-01-27T05:35:10.580Z,3.80
2018-01-27T05:37:37.069Z,3.80
2018-01-27T05:40:04.421Z,3.80
2018-01-27T05:42:31.780Z,3.70
2018-01-27T05:44:58.994Z,3.70
2018-01-27T05:47:26.751Z,3.70
2018-01-27T05:49:53.002Z,3.70
2018-01-27T05:52:19.376Z,3.70
2018-01-27T05:54:45.591Z,3.70
2018-01-27T05:57:11.974Z,3.70
2018-01-27T05:59:38.968Z,3.60
2018-01-27T06:02:05.349Z,3.60
2018-01-27T06:04:33.195Z,3.60
2018-01-27T06:06:59.364Z,3.60
2018-01-27T06:09:26.341Z,3.50
2018-01-27T06:11:52.705Z,3.50
2018-01-27T06:14:19.168Z,3.50
2018-01-27T06:16:46.260Z,3.40
2018-01-27T06:19:12.573Z,3.40
2018-01-27T06:21:39.088Z,3.40
2018-01-27T06:24:05.783Z,3.40
2018-01-27T06:26:32.364Z,3.40
2018-01-27T06:28:59.367Z,3.40
2018-01-27T06:31:25.939Z,3.30
2018-01-27T06:33:53.010Z,3.30
2018-01-27T06:36:19.198Z,3.20
2018-01-27T06:38:45.442Z,3.20
2018-01-27T06:41:12.443Z,3.20
2018-01-27T06:43:38.702Z,3.20
2018-01-27T06:46:05.742Z,3.10
2018-01-27T06:48:32.043Z,3.10
2018-01-27T06:50:58.436Z,3.10
2018-01-27T06:53:25.042Z,3.10
2018-01-27T06:55:52.121Z,3.00
2018-01-27T06:58:18.429Z,3.00
2018-01-27T07:00:45.416Z,2.90
2018-01-27T07:03:11.712Z,2.90
2018-01-27T07:05:38.033Z,2.80
2018-01-27T07:08:05.113Z,2.80
2018-01-27T07:10:31.406Z,2.80
2018-01-27T07:12:58.345Z,2.80
2018-01-27T07:15:25.830Z,2.80
2018-01-27T07:17:52.186Z,2.80
2018-01-27T07:20:18.435Z,2.70
2018-01-27T07:22:46.519Z,2.60
2018-01-27T07:25:12.799Z,2.70
2018-01-27T07:27:39.251Z,2.70
2018-01-27T07:30:05.671Z,2.70
2018-01-27T07:32:31.934Z,2.60
2018-01-27T07:34:59.022Z,2.60
2018-01-27T07:37:25.396Z,2.60
2018-01-27T07:39:51.614Z,2.60
2018-01-27T07:42:18.045Z,2.70
2018-01-27T07:44:44.362Z,2.70
2018-01-27T07:47:10.940Z,2.80
2018-01-27T07:49:38.085Z,2.90
2018-01-27T07:52:04.315Z,2.90
2018-01-27T07:54:31.368Z,3.00
2018-01-27T07:56:58.517Z,3.00
2018-01-27T07:59:25.592Z,3.00
2018-01-27T08:01:52.050Z,3.00
2018-01-27T08:04:18.334Z,3.00
2018-01-27T08:06:45.273Z,3.00
2018-01-27T08:09:12.307Z,2.90
2018-01-27T08:11:39.328Z,2.90
2018-01-27T08:14:06.772Z,2.90
2018-01-27T08:16:33.204Z,2.90
2018-01-27T08:18:59.434Z,2.80
2018-01-27T08:21:25.978Z,2.80
2018-01-27T08:23:52.314Z,2.80
2018-01-27T08:26:18.682Z,2.80
2018-01-27T08:28:45.005Z,2.80
2018-01-27T08:31:11.742Z,2.70
2018-01-27T08:33:38.850Z,2.70
2018-01-27T08:36:05.114Z,2.60
2018-01-27T08:38:31.505Z,2.70
2018-01-27T08:40:57.916Z,2.60
2018-01-27T08:43:24.217Z,2.60
2018-01-27T08:45:50.488Z,2.60
2018-01-27T08:48:16.871Z,2.50
2018-01-27T08:50:43.128Z,2.50
2018-01-27T08:53:09.393Z,2.40
2018-01-27T08:55:36.368Z,2.40
2018-01-27T08:58:03.521Z,2.50
2018-01-27T09:00:29.835Z,2.50
2018-01-27T09:02:56.139Z,2.60
2018-01-27T09:05:23.418Z,2.60
2018-01-27T09:07:49.943Z,2.60
2018-01-27T09:10:17.158Z,2.60
2018-01-27T09:12:50.426Z,2.60
2018-01-27T09:15:16.855Z,2.60
2018-01-27T09:17:43.224Z,2.60
2018-01-27T09:20:10.948Z,2.70
2018-01-27T09:22:37.299Z,2.70
2018-01-27T09:25:03.558Z,2.80
2018-01-27T09:27:29.904Z,2.90
2018-01-27T09:29:56.900Z,3.10
2018-01-27T09:32:23.346Z,3.10
2018-01-27T09:34:49.714Z,3.20
2018-01-27T09:40:10.021Z,3.20
2018-01-27T09:42:36.323Z,3.20
2018-01-27T09:45:02.736Z,3.20
2018-01-27T09:47:29.172Z,3.20
2018-01-27T09:49:55.365Z,3.20
2018-01-27T09:52:22.025Z,3.20
2018-01-27T09:54:48.326Z,3.20
2018-01-27T09:57:14.628Z,3.20
2018-01-27T09:59:41.808Z,3.20
2018-01-27T10:02:08.086Z,3.20
2018-01-27T10:04:34.385Z,3.30
2018-01-27T10:07:00.791Z,3.20
2018-01-27T10:09:26.974Z,3.30
2018-01-27T10:11:54.102Z,3.40
2018-01-27T10:14:20.521Z,3.40
2018-01-27T10:16:46.796Z,3.50
2018-01-27T10:19:13.898Z,3.70
2018-01-27T10:21:40.171Z,3.70
2018-01-27T10:24:07.260Z,3.90
2018-01-27T10:26:33.497Z,3.90
2018-01-27T10:28:59.889Z,4.10
2018-01-27T10:31:26.368Z,4.30
2018-01-27T10:33:53.020Z,4.40
2018-01-27T10:36:19.242Z,4.50
2018-01-27T10:38:45.525Z,4.60
2018-01-27T10:41:11.989Z,4.60
2018-01-27T10:43:38.430Z,4.70
2018-01-27T10:46:04.884Z,4.80
2018-01-27T10:48:31.177Z,4.80
2018-01-27T10:50:57.454Z,4.90
2018-01-27T10:53:24.522Z,5.00
2018-01-27T10:55:50.992Z,4.90
2018-01-27T10:58:17.426Z,5.10
2018-01-27T11:00:43.851Z,5.10
2018-01-27T11:03:10.368Z,5.20
2018-01-27T11:05:36.852Z,5.30
2018-01-27T11:08:03.798Z,5.40
2018-01-27T11:10:30.882Z,5.50
2018-01-27T11:12:57.207Z,5.50
2018-01-27T11:15:23.540Z,5.60
2018-01-27T11:17:49.812Z,5.70
2018-01-27T11:20:16.341Z,5.80
2018-01-27T11:22:42.777Z,5.90
2018-01-27T11:25:09.192Z,5.90
2018-01-27T11:27:35.464Z,5.90
2018-01-27T11:30:02.632Z,5.80
2018-01-27T11:32:29.029Z,5.80
2018-01-27T11:34:56.081Z,5.70
2018-01-27T11:37:23.167Z,5.60
2018-01-27T11:39:49.527Z,5.50
2018-01-27T11:42:16.711Z,5.40
2018-01-27T11:44:43.786Z,5.30
2018-01-27T11:47:10.186Z,5.30
2018-01-27T11:49:37.149Z,5.30
2018-01-27T11:52:03.549Z,5.30
2018-01-27T11:54:29.998Z,5.30
2018-01-27T11:56:57.054Z,5.40
2018-01-27T11:59:24.085Z,5.40
2018-01-27T12:01:51.776Z,5.40
2018-01-27T12:04:18.512Z,5.40
2018-01-27T12:06:44.836Z,5.40
2018-01-27T12:09:11.142Z,5.30
2018-01-27T12:11:38.145Z,5.30
2018-01-27T12:14:04.715Z,5.30
2018-01-27T12:16:30.931Z,5.40
2018-01-27T12:18:57.922Z,5.50
2018-01-27T12:21:24.614Z,5.50
2018-01-27T12:23:51.694Z,5.60
2018-01-27T12:26:17.973Z,5.60
2018-01-27T12:28:44.402Z,5.60
2018-01-27T12:31:10.564Z,5.70
2018-01-27T12:33:37.792Z,5.80
2018-01-27T12:36:04.083Z,5.80
2018-01-27T12:38:30.538Z,5.90
2018-01-27T12:40:56.780Z,6.00
2018-01-27T12:43:24.743Z,6.20
2018-01-27T12:45:51.776Z,6.40
2018-01-27T12:48:18.021Z,6.30
2018-01-27T12:50:45.087Z,6.60
2018-01-27T12:53:12.215Z,6.80
2018-01-27T12:55:38.623Z,6.80
2018-01-27T12:58:05.677Z,7.10
2018-01-27T13:00:32.040Z,7.20
2018-01-27T13:02:58.420Z,7.40
2018-01-27T13:05:25.833Z,7.40
2018-01-27T13:10:50.194Z,7.40
2018-01-27T13:13:16.652Z,7.40
2018-01-27T13:15:43.777Z,7.20
2018-01-27T13:18:10.051Z,7.20
2018-01-27T13:20:36.445Z,7.10
2018-01-27T13:23:02.861Z,7.10
2018-01-27T13:25:29.317Z,7.10
2018-01-27T13:27:55.543Z,7.00
2018-01-27T13:30:21.766Z,7.00
2018-01-27T13:32:48.200Z,7.00
2018-01-27T13:35:14.507Z,6.90
2018-01-27T13:37:40.766Z,7.00
2018-01-27T13:40:07.925Z,6.90
2018-01-27T13:42:35.847Z,6.90
2018-01-27T13:45:02.305Z,7.00
2018-01-27T13:47:35.978Z,6.90
2018-01-27T13:50:02.522Z,6.90
2018-01-27T13:52:28.972Z,6.90
2018-01-27T13:54:55.594Z,6.80
2018-01-27T13:57:22.233Z,6.80
2018-01-27T13:59:48.884Z,6.80
2018-01-27T14:02:15.531Z,6.80
2018-01-27T14:04:42.531Z,6.70
2018-01-27T14:07:09.190Z,6.80
2018-01-27T14:09:36.181Z,6.60
2018-01-27T14:12:02.559Z,6.60
2018-01-27T14:14:28.967Z,6.60
2018-01-27T14:16:56.407Z,6.50
2018-01-27T14:19:22.777Z,6.50
2018-01-27T14:21:49.094Z,6.50
2018-01-27T14:24:15.367Z,6.60
2018-01-27T14:26:42.402Z,6.50
2018-01-27T14:29:08.571Z,6.50
2018-01-27T14:31:35.308Z,6.50
2018-01-27T14:34:03.361Z,6.50
2018-01-27T14:36:39.952Z,6.40
2018-01-27T14:39:06.178Z,6.40
2018-01-27T14:41:32.670Z,6.40
2018-01-27T14:43:59.138Z,6.40
2018-01-27T14:46:25.521Z,6.30
2018-01-27T14:48:51.874Z,6.30
2018-01-27T14:51:19.215Z,6.20
2018-01-27T14:53:46.928Z,6.10
2018-01-27T14:56:13.157Z,6.10
2018-01-27T14:58:39.732Z,6.10
2018-01-27T15:01:06.027Z,6.00
2018-01-27T15:03:32.571Z,6.00
2018-01-27T15:05:58.896Z,5.90
2018-01-27T15:08:25.303Z,5.70
2018-01-27T15:10:51.775Z,5.60
2018-01-27T15:13:18.141Z,5.40
2018-01-27T15:15:45.357Z,5.10
2018-01-27T15:18:11.674Z,5.00
2018-01-27T15:20:37.976Z,4.90
2018-01-27T15:23:04.554Z,4.80
2018-01-27T15:25:30.969Z,4.70
2018-01-27T15:27:57.616Z,4.60
2018-01-27T15:30:24.695Z,4.50
2018-01-27T15:32:51.761Z,4.20
2018-01-27T15:35:18.237Z,4.20
2018-01-27T15:37:44.691Z,4.10
2018-01-27T15:40:10.938Z,4.10
2018-01-27T15:42:37.964Z,3.80
2018-01-27T15:45:04.313Z,3.80
2018-01-27T15:47:38.164Z,3.50
2018-01-27T15:50:04.590Z,3.50
2018-01-27T15:52:30.903Z,3.40
2018-01-27T15:54:57.618Z,3.30
2018-01-27T15:57:24.155Z,3.20
2018-01-27T15:59:52.289Z,3.00
2018-01-27T16:02:18.768Z,2.90
2018-01-27T16:04:44.978Z,2.90
2018-01-27T16:07:12.241Z,2.70
2018-01-27T16:09:38.460Z,2.70
2018-01-27T16:12:04.807Z,2.60
2018-01-27T16:14:31.384Z,2.50
2018-01-27T16:16:57.762Z,2.50
2018-01-27T16:19:24.196Z,2.30
2018-01-27T16:21:50.502Z,2.20
2018-01-27T16:24:17.617Z,2.00
2018-01-27T16:26:43.945Z,1.90
2018-01-27T16:29:10.215Z,1.90
2018-01-27T16:31:37.181Z,1.70
2018-01-27T16:34:03.759Z,1.60
2018-01-27T16:36:29.975Z,1.60
2018-01-27T16:38:56.371Z,1.50
2018-01-27T16:41:23.334Z,1.30
2018-01-27T16:43:49.729Z,1.30
2018-01-27T16:46:16.839Z,1.20
2018-01-27T16:48:43.125Z,1.20
2018-01-27T16:51:09.361Z,1.20
2018-01-27T16:53:35.568Z,1.10
2018-01-27T16:56:01.900Z,1.10
2018-01-27T16:58:28.192Z,1.00
2018-01-27T17:00:55.407Z,0.80
2018-01-27T17:03:21.716Z,0.80
2018-01-27T17:05:48.022Z,0.80
2018-01-27T17:08:14.378Z,0.70
2018-01-27T17:10:40.666Z,0.60
2018-01-27T17:13:07.180Z,0.60
2018-01-27T17:15:34.381Z,0.40
2018-01-27T17:18:00.632Z,0.40
2018-01-27T17:20:26.999Z,0.40
2018-01-27T17:22:53.276Z,0.40
2018-01-27T17:25:19.566Z,0.30
2018-01-27T17:27:46.712Z,0.20
2018-01-27T17:30:14.220Z,0.20
2018-01-27T17:32:40.824Z,0.20
2018-01-27T17:35:07.836Z,0.20
2018-01-27T17:37:35.131Z,0.10
2018-01-27T17:40:01.466Z,0.10
2018-01-27T17:42:28.016Z,0.10
2018-01-27T17:44:54.258Z,0.00
2018-01-27T17:47:20.466Z,0.00
2018-01-27T17:49:46.746Z,0.00
2018-01-27T17:52:13.046Z,-0.10
2018-01-27T17:54:39.345Z,-0.10
2018-01-27T17:57:05.636Z,-0.20
2018-01-27T17:59:32.657Z,-0.20
2018-01-27T18:01:59.021Z,-0.30
2018-01-27T18:04:25.980Z,-0.30
2018-01-27T18:06:52.367Z,-0.30
2018-01-27T18:09:19.462Z,-0.20
2018-01-27T18:11:45.836Z,-0.20
2018-01-27T18:14:12.806Z,-0.20
2018-01-27T18:16:39.053Z,-0.20
2018-01-27T18:19:05.400Z,-0.20
2018-01-27T18:21:31.861Z,-0.30
2018-01-27T18:23:58.299Z,-0.30
2018-01-27T18:26:24.539Z,-0.30
2018-01-27T18:28:50.948Z,-0.30
2018-01-27T18:31:17.385Z,-0.30
2018-01-27T18:33:43.934Z,-0.30
2018-01-27T18:36:11.127Z,-0.10
2018-01-27T18:38:38.790Z,-0.10
2018-01-27T18:41:05.054Z,0.10
2018-01-27T18:43:31.342Z,0.20
2018-01-27T18:45:57.677Z,0.20
2018-01-27T18:48:24.282Z,0.40
2018-01-27T18:50:51.867Z,0.80
2018-01-27T18:53:18.328Z,0.80
2018-01-27T18:55:44.770Z,1.00
2018-01-27T18:58:11.254Z,1.20
2018-01-27T19:00:38.306Z,1.40
2018-01-27T19:03:04.980Z,1.40
2018-01-27T19:05:31.367Z,1.60
2018-01-27T19:07:58.293Z,2.10
2018-01-27T19:10:25.615Z,2.20
2018-01-27T19:12:52.046Z,2.20
2018-01-27T19:15:18.511Z,2.30
2018-01-27T19:17:45.731Z,2.30
2018-01-27T19:20:11.930Z,2.30
2018-01-27T19:22:38.184Z,2.40
2018-01-27T19:25:04.425Z,2.30
2018-01-27T19:27:30.800Z,2.40
2018-01-27T19:29:57.296Z,2.40
2018-01-27T19:32:23.609Z,2.50
2018-01-27T19:34:50.038Z,2.60
2018-01-27T19:37:17.999Z,2.70
2018-01-27T19:39:44.301Z,2.70
2018-01-27T19:42:10.968Z,2.80
2018-01-27T19:44:37.247Z,2.80
2018-01-27T19:47:03.625Z,2.90
2018-01-27T19:49:30.056Z,3.00
2018-01-27T19:51:56.488Z,3.00
2018-01-27T19:54:24.108Z,3.00
2018-01-27T19:56:50.579Z,2.90
2018-01-27T19:59:16.970Z,2.90
2018-01-27T20:01:43.291Z,2.90
2018-01-27T20:04:09.671Z,2.90
2018-01-27T20:06:36.056Z,2.90
2018-01-27T20:09:02.323Z,2.90
2018-01-27T20:11:28.721Z,2.90
2018-01-27T20:13:54.962Z,2.90
2018-01-27T20:16:21.203Z,2.90
2018-01-27T20:18:48.335Z,2.90
2018-01-27T20:21:14.697Z,2.90
2018-01-27T20:23:41.838Z,2.90
2018-01-27T20:26:08.105Z,2.90
2018-01-27T20:28:35.214Z,2.90
2018-01-27T20:31:01.560Z,2.80
2018-01-27T20:33:29.405Z,2.80
2018-01-27T20:35:55.876Z,2.80
2018-01-27T20:38:22.797Z,2.90
2018-01-27T20:40:49.860Z,2.80
2018-01-27T20:43:17.051Z,2.90
2018-01-27T20:45:43.457Z,2.90
2018-01-27T20:48:10.713Z,2.80
2018-01-27T20:50:37.326Z,2.80
2018-01-27T20:53:04.529Z,2.80
2018-01-27T20:55:30.805Z,2.80
2018-01-27T20:57:58.036Z,2.80
2018-01-27T21:00:25.077Z,2.80
2018-01-27T21:02:51.338Z,2.80
2018-01-27T21:05:18.395Z,2.80
2018-01-27T21:07:44.714Z,2.80
2018-01-27T21:10:12.438Z,2.80
2018-01-27T21:12:38.812Z,2.80
2018-01-27T21:15:06.009Z,2.70
2018-01-27T21:17:32.352Z,2.70
2018-01-27T21:19:59.509Z,2.80
2018-01-27T21:22:26.122Z,2.80
2018-01-27T21:24:52.467Z,2.90
2018-01-27T21:27:18.995Z,2.90
2018-01-27T21:29:45.231Z,2.90
2018-01-27T21:32:13.037Z,2.80
2018-01-27T21:34:39.363Z,2.80
2018-01-27T21:37:05.957Z,2.70
2018-01-27T21:39:32.483Z,2.60
2018-01-27T21:41:58.990Z,2.70
2018-01-27T21:44:25.176Z,2.70
2018-01-27T21:46:52.447Z,2.80
2018-01-27T21:49:18.672Z,2.80
2018-01-27T21:51:52.013Z,2.90
2018-01-27T21:54:18.374Z,3.00
2018-01-27T21:56:45.313Z,3.00
2018-01-27T21:59:12.489Z,3.10
2018-01-27T22:01:38.722Z,3.10
2018-01-27T22:04:05.198Z,3.10
2018-01-27T22:06:31.625Z,3.20
2018-01-27T22:08:58.706Z,3.30
2018-01-27T22:11:25.818Z,3.30
2018-01-27T22:13:52.339Z,3.30
2018-01-27T22:16:18.637Z,3.40
2018-01-27T22:18:45.108Z,3.40
2018-01-27T22:21:11.464Z,3.50
2018-01-27T22:23:38.966Z,3.50
2018-01-27T22:26:05.431Z,3.60
2018-01-27T22:28:31.902Z,3.60
2018-01-27T22:30:58.972Z,3.60
2018-01-27T22:33:25.262Z,3.60
2018-01-27T22:35:51.564Z,3.60
2018-01-27T22:38:18.099Z,3.60
2018-01-27T22:40:44.423Z,3.60
2018-01-27T22:43:12.287Z,3.70
2018-01-27T22:45:38.633Z,3.70
2018-01-27T22:48:05.014Z,3.70
2018-01-27T22:50:31.211Z,3.70
2018-01-27T22:52:58.320Z,3.80
2018-01-27T22:55:24.545Z,3.70
2018-01-27T22:57:50.940Z,3.70
2018-01-27T23:00:17.389Z,3.70
2018-01-27T23:02:43.736Z,3.70
2018-01-27T23:05:10.008Z,3.70
2018-01-27T23:07:37.060Z,3.80
2018-01-27T23:10:04.102Z,3.80
2018-01-27T23:12:31.136Z,3.80
2018-01-27T23:14:57.854Z,3.80
2018-01-27T23:17:24.211Z,3.80
2018-01-27T23:19:51.162Z,3.70
2018-01-27T23:22:18.209Z,3.70
2018-01-27T23:24:45.155Z,3.70
2018-01-27T23:27:12.188Z,3.70
2018-01-27T23:29:39.419Z,3.70
2018-01-27T23:32:07.136Z,3.70
2018-01-27T23:34:33.395Z,3.70
2018-01-27T23:36:59.623Z,3.70
2018-01-27T23:39:25.837Z,3.80
2018-01-27T23:41:52.400Z,3.70
2018-01-27T23:44:20.164Z,3.70
2018-01-27T23:46:46.402Z,3.70
2018-01-27T23:49:13.470Z,3.80
2018-01-27T23:51:39.838Z,3.80
2018-01-27T23:54:06.362Z,3.80
2018-01-27T23:56:33.193Z,3.80
2018-01-27T23:58:59.677Z,3.90
